Terminal Aerodrome Forecast
Issued by NWS Charleston, WV

Home | Current Version | Previous Version | Text Only | Print | Product List | Glossary On
Versions: 1 2 3 4 5 6 7 8 9 10 11 12 13 14 15 16 17 18 19 20 21 22 23
000
FTUS41 KRLX 231729
TAFHTS
TAF
KHTS 231729Z 2318/2418 24008KT P6SM BKN040
     FM232000 24008KT P6SM VCTS BKN040CB
      TEMPO 2321/2323 4SM +TSRA OVC025CB
     FM232300 25007KT P6SM VCTS BKN090CB
      TEMPO 2323/2402 3SM +TSRA OVC025CB
     FM240200 25004KT P6SM VCTS BKN040CB
     FM240400 VRB03KT P6SM BKN250
     FM240900 00000KT P6SM BKN025
     FM241400 23005KT P6SM BKN035=

USA.gov is the U.S. government's official web portal to all federal, state and local government web resources and services.